Time;durP1;ratioP1;P1;durP2;ratioP2;P2;SDS_P1;SDS_P2;PMS_P1;PMS_P2;Temp;Humidity;BMP_temperature;BMP_pressure;BME280_temperature;BME280_humidity;BME280_pressure;Samples;Min_cycle;Max_cycle;Signal;HPM_P1;HPM_P2
2022/03/31 00:01:31;;;;;;;11.32;4.30;;;;;;;11.54;80.23;98799.91;5570550;32;34154;-65
2022/03/31 00:04:34;;;;;;;15.43;4.55;;;;;;;11.52;79.25;98802.00;5556620;32;34667;-65
2022/03/31 00:07:47;;;;;;;14.75;4.20;;;;;;;11.50;78.88;98785.44;5570117;32;33883;-66
2022/03/31 00:10:52;;;;;;;10.30;4.07;;;;;;;11.50;78.83;98786.25;5569998;32;34928;-65
2022/03/31 00:13:55;;;;;;;9.57;3.97;;;;;;;11.48;78.39;98785.66;5556525;32;34670;-65
2022/03/31 00:16:59;;;;;;;8.55;4.18;;;;;;;11.53;77.67;98780.50;5569991;32;34368;-65
2022/03/31 00:20:01;;;;;;;11.07;4.57;;;;;;;11.61;77.89;98772.31;5570105;32;34684;-65
2022/03/31 00:23:08;;;;;;;12.45;4.35;;;;;;;11.58;77.54;98771.91;5569916;32;33972;-65
2022/03/31 00:26:13;;;;;;;19.65;5.10;;;;;;;11.56;77.86;98780.09;5569884;32;34670;-65
2022/03/31 00:29:17;;;;;;;9.40;4.70;;;;;;;11.58;77.93;98782.53;5570061;32;34552;-66
2022/03/31 00:32:19;;;;;;;10.63;4.82;;;;;;;11.57;78.42;98780.94;5569923;32;34646;-65
2022/03/31 00:35:22;;;;;;;13.88;4.57;;;;;;;11.48;78.84;98774.19;5569907;32;33991;-65
2022/03/31 00:38:25;;;;;;;19.65;5.95;;;;;;;11.49;78.88;98773.19;5569847;32;33994;-65
2022/03/31 00:41:27;;;;;;;14.18;5.43;;;;;;;11.58;78.12;98759.44;5569700;32;34719;-65
2022/03/31 00:44:30;;;;;;;9.32;4.87;;;;;;;11.56;77.79;98772.13;5569741;32;34391;-66
2022/03/31 00:47:34;;;;;;;12.32;5.20;;;;;;;11.52;77.92;98767.47;5569728;32;34381;-66
2022/03/31 00:50:37;;;;;;;11.32;5.20;;;;;;;11.47;nan;98757.47;5570058;32;34481;-65
2022/03/31 00:53:40;;;;;;;13.75;4.97;;;;;;;11.47;77.97;98760.13;5569638;32;34400;-65
2022/03/31 00:56:43;;;;;;;14.85;5.28;;;;;;;11.52;77.27;98756.84;5569650;32;34587;-65
2022/03/31 00:59:45;;;;;;;15.80;4.85;;;;;;;11.54;77.05;98752.94;5569565;32;33942;-65
2022/03/31 01:02:48;;;;;;;11.77;4.93;;;;;;;11.54;76.78;98744.97;5555767;32;32765;-65
2022/03/31 01:05:51;;;;;;;17.00;4.62;;;;;;;11.56;76.83;98745.56;5569813;32;34003;-65
2022/03/31 01:08:54;;;;;;;12.77;4.75;;;;;;;11.56;76.76;98742.94;5569374;32;34652;-66
2022/03/31 01:11:57;;;;;;;11.07;4.55;;;;;;;11.49;77.02;98741.31;5569212;32;34621;-65
2022/03/31 01:15:06;;;;;;;11.60;4.95;;;;;;;11.49;76.60;98734.16;5569289;32;34361;-65
2022/03/31 01:18:10;;;;;;;9.05;4.30;;;;;;;11.41;77.07;98723.81;5555668;32;34655;-65
2022/03/31 01:21:14;;;;;;;10.80;4.53;;;;;;;11.36;77.25;98723.62;5569147;32;34632;-65
2022/03/31 01:24:18;;;;;;;16.23;5.45;;;;;;;11.48;76.78;98724.56;5569064;32;34238;-65
2022/03/31 01:27:21;;;;;;;17.02;5.25;;;;;;;11.46;76.95;98723.16;5555614;32;32381;-65
2022/03/31 01:30:24;;;;;;;12.10;5.03;;;;;;;11.49;76.80;98722.72;5568940;31;33879;-65
2022/03/31 01:33:26;;;;;;;8.38;4.70;;;;;;;11.45;77.18;98718.88;5569377;32;34169;-65
2022/03/31 01:36:29;;;;;;;15.07;4.65;;;;;;;11.42;77.51;98717.47;5569204;32;34135;-65
2022/03/31 01:39:32;;;;;;;13.90;5.60;;;;;;;11.47;77.44;98715.00;5569217;32;34467;-65
2022/03/31 01:42:36;;;;;;;12.57;5.00;;;;;;;11.55;76.89;98704.09;5568593;32;34549;-66
2022/03/31 01:45:40;;;;;;;15.25;5.32;;;;;;;11.42;77.66;98706.84;5555022;32;34104;-65
2022/03/31 01:48:43;;;;;;;17.58;5.72;;;;;;;11.46;77.27;98697.44;5568538;32;33902;-66
2022/03/31 01:51:45;;;;;;;20.77;6.20;;;;;;;11.43;77.52;98702.34;5568733;32;33959;-65
2022/03/31 01:54:49;;;;;;;24.98;6.00;;;;;;;11.40;77.80;98708.91;5568581;32;34692;-65
2022/03/31 01:57:52;;;;;;;14.80;5.57;;;;;;;11.41;77.99;98715.84;5568479;32;33943;-65
2022/03/31 02:00:55;;;;;;;10.63;5.12;;;;;;;11.41;77.99;98715.03;5568402;32;34641;-65
2022/03/31 02:03:58;;;;;;;17.35;5.40;;;;;;;11.37;77.86;98705.87;5568420;32;33956;-65
2022/03/31 02:07:01;;;;;;;18.75;5.07;;;;;;;11.33;77.81;98713.41;5568324;32;35199;-65
2022/03/31 02:10:07;;;;;;;20.12;5.05;;;;;;;11.31;77.93;98708.34;5568282;32;33915;-65
2022/03/31 02:13:11;;;;;;;13.48;5.97;;;;;;;11.29;78.11;98697.13;5568100;32;34233;-65
2022/03/31 02:16:14;;;;;;;13.90;5.30;;;;;;;11.27;78.26;98693.88;5569181;32;34586;-65
2022/03/31 02:19:18;;;;;;;11.93;5.32;;;;;;;11.31;78.00;98692.41;5557385;32;33861;-65
2022/03/31 02:22:22;;;;;;;11.93;5.22;;;;;;;11.31;77.95;98689.75;5571037;32;33892;-65
2022/03/31 02:25:25;;;;;;;12.00;5.53;;;;;;;11.33;77.90;98679.72;5571306;32;34298;-65
2022/03/31 02:28:27;;;;;;;15.60;5.82;;;;;;;11.37;77.70;98676.66;5566180;32;151653;-66
2022/03/31 02:31:31;;;;;;;9.27;4.93;;;;;;;11.29;78.06;98672.41;5570945;32;34382;-66
2022/03/31 02:34:36;;;;;;;12.45;4.97;;;;;;;11.30;78.25;98682.81;5570769;32;33965;-65
2022/03/31 02:37:39;;;;;;;10.85;4.75;;;;;;;11.34;78.03;98678.69;5570779;32;33931;-65
2022/03/31 02:40:42;;;;;;;13.65;4.65;;;;;;;11.28;78.34;98671.59;5570845;32;34061;-65
2022/03/31 02:43:45;;;;;;;12.68;4.70;;;;;;;11.24;78.50;98674.87;5571033;32;34881;-66
2022/03/31 02:46:48;;;;;;;13.15;5.97;;;;;;;11.20;78.78;98677.16;5570920;32;34275;-67
2022/03/31 02:49:50;;;;;;;13.43;5.32;;;;;;;11.01;79.59;98670.13;5570635;32;33920;-65
2022/03/31 02:56:14;;;;;;;16.77;4.82;;;;;;;10.90;80.67;98676.91;5570687;32;34654;-66
2022/03/31 02:59:18;;;;;;;12.70;4.85;;;;;;;10.89;80.49;98667.31;5570664;32;34304;-65
2022/03/31 03:02:20;;;;;;;15.70;4.90;;;;;;;10.96;80.30;98672.59;5570518;32;33983;-65
2022/03/31 03:05:23;;;;;;;15.18;5.15;;;;;;;10.93;80.29;98664.25;5570680;32;34663;-65
2022/03/31 03:08:27;;;;;;;11.45;4.12;;;;;;;10.95;80.12;98660.34;5570881;32;34007;-65
2022/03/31 03:11:30;;;;;;;9.55;5.12;;;;;;;10.92;80.32;98657.31;5556916;32;34758;-65
2022/03/31 03:14:33;;;;;;;11.40;5.53;;;;;;;10.98;80.26;98661.78;5570445;32;34103;-65
2022/03/31 03:17:40;;;;;;;10.63;4.70;;;;;;;11.00;80.15;98663.19;5556769;32;33934;-66
2022/03/31 03:20:43;;;;;;;13.50;4.75;;;;;;;11.01;80.63;98662.16;5570494;32;35355;-65
2022/03/31 03:23:48;;;;;;;13.98;5.05;;;;;;;11.01;80.77;98656.84;5570495;32;33947;-65
2022/03/31 03:26:51;;;;;;;16.95;4.85;;;;;;;10.88;81.96;98663.06;5569935;32;33937;-65
2022/03/31 03:29:54;;;;;;;14.55;5.25;;;;;;;10.95;81.80;98648.91;5543526;32;33999;-65
2022/03/31 03:32:56;;;;;;;19.12;5.97;;;;;;;10.75;82.79;98649.00;5570731;32;34769;-66
2022/03/31 03:36:00;;;;;;;9.57;5.72;;;;;;;10.65;83.77;98640.72;5570323;32;34664;-65
2022/03/31 03:39:04;;;;;;;14.20;6.20;;;;;;;10.58;84.29;98654.00;5556793;32;34334;-65
2022/03/31 03:42:07;;;;;;;10.13;5.32;;;;;;;10.57;84.37;98649.69;5570284;32;34428;-65
2022/03/31 03:45:11;;;;;;;11.52;5.32;;;;;;;10.59;84.11;98641.53;5570058;32;35529;-65
2022/03/31 03:48:14;;;;;;;12.73;5.80;;;;;;;10.60;84.24;98632.56;5570234;32;34612;-66
2022/03/31 03:51:17;;;;;;;11.43;5.35;;;;;;;10.62;84.05;98630.50;5570279;32;35195;-66
2022/03/31 03:54:21;;;;;;;15.75;5.60;;;;;;;10.61;83.82;98632.34;5570197;32;33974;-66
2022/03/31 03:57:23;;;;;;;12.27;6.25;;;;;;;10.64;83.59;98631.94;5570337;32;34024;-66
2022/03/31 04:00:27;;;;;;;14.82;6.28;;;;;;;10.80;82.93;98614.72;5570206;32;34142;-66
2022/03/31 04:03:31;;;;;;;11.52;5.22;;;;;;;10.78;82.82;98617.59;5556463;32;33933;-66
2022/03/31 04:06:34;;;;;;;16.00;5.72;;;;;;;10.77;82.49;98605.34;5570058;32;33981;-66
2022/03/31 04:09:36;;;;;;;12.55;5.82;;;;;;;10.85;81.81;98610.41;5570053;32;34586;-65
2022/03/31 04:12:40;;;;;;;16.60;6.68;;;;;;;10.84;81.76;98608.75;5570427;32;33990;-65
2022/03/31 04:15:42;;;;;;;18.62;6.97;;;;;;;10.84;81.16;98602.66;5570463;32;34808;-66
2022/03/31 04:18:45;;;;;;;13.88;6.47;;;;;;;10.76;81.34;98608.19;5570375;32;34040;-65
2022/03/31 04:21:48;;;;;;;12.25;6.28;;;;;;;10.81;81.27;98611.03;5556267;32;34724;-65
2022/03/31 04:24:51;;;;;;;17.98;6.07;;;;;;;10.81;81.26;98605.72;5570044;32;33922;-66
2022/03/31 04:27:54;;;;;;;13.60;5.85;;;;;;;10.80;81.13;98606.75;5569856;32;34726;-65
2022/03/31 04:30:57;;;;;;;18.15;6.18;;;;;;;10.84;80.81;98595.50;5569898;32;33934;-65
2022/03/31 04:34:00;;;;;;;18.05;6.75;;;;;;;10.82;80.76;98604.72;5569984;32;33992;-65
2022/03/31 04:37:03;;;;;;;18.77;7.07;;;;;;;10.82;80.83;98599.41;5569872;32;33878;-66
2022/03/31 04:40:07;;;;;;;15.88;6.57;;;;;;;10.79;80.76;98605.16;5569427;32;34560;-65
2022/03/31 04:43:10;;;;;;;11.43;6.57;;;;;;;10.89;80.19;98603.63;5569411;32;34043;-65
2022/03/31 04:46:13;;;;;;;15.23;6.12;;;;;;;10.82;80.26;98602.88;5569361;32;35488;-65
2022/03/31 04:49:16;;;;;;;14.27;6.30;;;;;;;10.89;80.35;98595.69;5569645;32;33941;-65
2022/03/31 04:52:19;;;;;;;12.85;5.82;;;;;;;10.98;79.49;98595.44;5569823;32;34749;-66
2022/03/31 04:55:22;;;;;;;22.10;6.85;;;;;;;10.90;79.51;98604.44;5569387;32;34531;-66
2022/03/31 04:58:24;;;;;;;15.13;7.22;;;;;;;10.84;79.79;98595.50;5569448;32;33891;-67
2022/03/31 05:01:27;;;;;;;11.65;5.93;;;;;;;10.84;79.97;98597.38;5569601;32;34662;-65
2022/03/31 05:04:30;;;;;;;14.65;7.00;;;;;;;10.92;79.83;98591.81;5569150;32;33917;-66
2022/03/31 05:07:32;;;;;;;13.35;7.37;;;;;;;10.88;80.27;98590.59;5569090;32;34611;-66
2022/03/31 05:10:36;;;;;;;17.75;5.87;;;;;;;10.86;81.01;98595.28;5569049;32;34293;-67
2022/03/31 05:13:39;;;;;;;24.23;7.12;;;;;;;10.95;83.67;98593.19;5569273;32;34336;-66
2022/03/31 05:16:42;;;;;;;15.60;6.87;;;;;;;10.79;82.02;98599.84;5555313;32;34159;-67
2022/03/31 05:19:45;;;;;;;13.45;7.25;;;;;;;10.70;83.94;98593.13;5569045;32;34677;-67
2022/03/31 05:22:48;;;;;;;12.98;6.70;;;;;;;10.72;85.12;98594.56;5569100;32;34600;-67
2022/03/31 05:25:51;;;;;;;15.63;7.50;;;;;;;10.80;87.09;98596.13;5555008;32;34347;-67
2022/03/31 05:28:54;;;;;;;18.45;6.90;;;;;;;10.73;85.32;98598.03;5568792;32;33876;-67
2022/03/31 05:31:59;;;;;;;18.20;6.85;;;;;;;10.69;84.15;98597.66;5568693;32;33959;-67
2022/03/31 05:35:02;;;;;;;15.82;6.95;;;;;;;10.74;84.77;98604.97;5568560;32;33961;-65
2022/03/31 05:38:06;;;;;;;16.50;7.75;;;;;;;10.78;83.89;98593.72;5568661;32;34714;-66
2022/03/31 05:41:10;;;;;;;23.52;7.57;;;;;;;10.72;83.65;98607.00;5568391;32;34032;-67
2022/03/31 05:44:13;;;;;;;17.35;8.00;;;;;;;10.79;83.55;98602.50;5568373;32;33968;-66
2022/03/31 05:47:16;;;;;;;18.58;7.10;;;;;;;10.75;84.39;98594.12;5568168;32;34563;-67
2022/03/31 05:50:19;;;;;;;19.55;7.35;;;;;;;10.70;86.41;98598.44;5568245;32;34129;-66
2022/03/31 05:53:22;;;;;;;16.23;7.50;;;;;;;10.69;86.09;98589.69;5570724;32;34044;-66
2022/03/31 05:56:25;;;;;;;17.33;7.50;;;;;;;10.59;85.45;98599.94;5570768;32;34552;-66
2022/03/31 05:59:28;;;;;;;17.55;7.32;;;;;;;10.50;85.99;98590.59;5570542;32;34237;-66
2022/03/31 06:02:31;;;;;;;15.00;7.30;;;;;;;10.53;87.78;98582.22;5570851;32;34664;-65
2022/03/31 06:05:51;;;;;;;13.40;6.82;;;;;;;10.56;89.02;98595.03;5570881;32;34080;-65
2022/03/31 06:08:53;;;;;;;16.15;8.35;;;;;;;10.61;90.70;98594.41;5570761;32;34037;-66
2022/03/31 06:11:56;;;;;;;18.02;9.32;;;;;;;10.54;90.75;98596.28;5570747;32;34319;-65
2022/03/31 06:14:59;;;;;;;20.30;8.63;;;;;;;10.53;94.47;98605.25;5570632;32;34102;-66
2022/03/31 06:18:07;;;;;;;22.00;9.60;;;;;;;10.40;96.13;98606.13;5570568;32;34264;-65
2022/03/31 06:21:10;;;;;;;18.80;8.85;;;;;;;10.38;98.69;98613.47;5570745;32;34026;-65
2022/03/31 06:24:13;;;;;;;19.80;8.25;;;;;;;10.38;99.16;98609.00;5570191;32;34233;-65
2022/03/31 06:27:16;;;;;;;20.30;9.23;;;;;;;10.40;99.41;98614.09;5570704;32;34040;-66
2022/03/31 06:30:19;;;;;;;16.67;9.50;;;;;;;10.39;99.55;98605.31;5570358;32;34121;-65
2022/03/31 06:33:22;;;;;;;16.27;8.68;;;;;;;10.30;99.37;98609.22;5556065;32;34556;-64
2022/03/31 06:36:25;;;;;;;18.85;9.77;;;;;;;10.33;99.41;98616.75;5570340;32;34133;-65
2022/03/31 06:39:28;;;;;;;19.10;9.55;;;;;;;10.41;100.00;98613.84;5556796;32;34258;-65
2022/03/31 06:42:31;;;;;;;16.12;9.63;;;;;;;10.23;100.00;98624.31;5570534;32;34654;-65
2022/03/31 06:45:34;;;;;;;26.48;9.27;;;;;;;10.01;100.00;98631.69;5557347;32;34215;-65
2022/03/31 06:48:41;;;;;;;19.58;10.68;;;;;;;9.87;100.00;98638.03;5570276;31;34037;-66
2022/03/31 06:51:44;;;;;;;20.27;9.45;;;;;;;9.70;100.00;98642.09;5570693;32;34669;-66
2022/03/31 06:54:47;;;;;;;18.67;10.35;;;;;;;9.68;100.00;98638.88;5570596;32;34007;-66
2022/03/31 06:57:49;;;;;;;17.27;9.77;;;;;;;9.63;100.00;98643.13;5556767;32;33884;-66
2022/03/31 07:00:53;;;;;;;18.75;9.70;;;;;;;9.64;100.00;98644.75;5570525;32;33893;-67
2022/03/31 07:03:56;;;;;;;18.95;9.80;;;;;;;9.62;100.00;98646.78;5570548;32;34672;-66
2022/03/31 07:06:59;;;;;;;20.90;10.00;;;;;;;9.55;100.00;98636.19;5570584;32;33960;-67
2022/03/31 07:10:01;;;;;;;23.90;11.20;;;;;;;9.48;100.00;98641.50;5570418;32;34393;-67
2022/03/31 07:13:05;;;;;;;15.43;9.70;;;;;;;9.39;100.00;98640.03;5570467;32;34100;-67
2022/03/31 07:16:08;;;;;;;21.40;10.55;;;;;;;9.39;100.00;98631.31;5570566;32;35306;-66
2022/03/31 07:19:12;;;;;;;19.20;10.60;;;;;;;9.43;100.00;98632.53;5570498;32;34515;-66
2022/03/31 07:22:15;;;;;;;22.87;11.02;;;;;;;9.38;100.00;98629.69;5556583;32;34090;-66
2022/03/31 07:25:18;;;;;;;19.90;10.18;;;;;;;9.48;100.00;98624.81;5556637;32;34363;-66
2022/03/31 07:28:21;;;;;;;21.25;10.63;;;;;;;9.54;100.00;98630.09;5570335;32;33998;-67
2022/03/31 07:31:28;;;;;;;25.15;10.32;;;;;;;9.47;100.00;98631.09;5557371;32;32624;-67
2022/03/31 07:34:31;;;;;;;25.98;10.88;;;;;;;9.55;100.00;98623.78;5570361;32;33952;-67
2022/03/31 07:37:34;;;;;;;22.90;10.32;;;;;;;9.71;100.00;98627.84;5570242;32;34045;-67
2022/03/31 07:40:39;;;;;;;18.75;9.98;;;;;;;9.47;100.00;98633.75;5570688;32;34360;-67
2022/03/31 07:43:43;;;;;;;17.95;10.10;;;;;;;9.49;100.00;98624.59;5570282;32;34741;-67
2022/03/31 07:46:46;;;;;;;18.12;10.60;;;;;;;9.42;100.00;98623.78;5570225;32;33982;-68
2022/03/31 07:49:49;;;;;;;25.15;10.25;;;;;;;9.47;100.00;98625.81;5569445;32;34204;-67
2022/03/31 07:52:52;;;;;;;19.87;9.15;;;;;;;9.57;100.00;98624.41;5570052;32;34025;-67
2022/03/31 07:55:55;;;;;;;20.92;9.65;;;;;;;9.67;100.00;98620.53;5570257;32;34520;-67
2022/03/31 07:58:57;;;;;;;17.15;9.48;;;;;;;9.73;100.00;98623.16;5570619;32;34147;-68
2022/03/31 08:02:01;;;;;;;20.80;9.63;;;;;;;9.68;100.00;98622.16;5570300;32;33932;-68
2022/03/31 08:05:05;;;;;;;21.85;9.98;;;;;;;9.75;100.00;98626.41;5570138;32;33628;-68
2022/03/31 08:08:10;;;;;;;20.85;9.20;;;;;;;9.78;100.00;98625.22;5570493;32;34054;-68
2022/03/31 08:11:14;;;;;;;20.73;9.93;;;;;;;9.71;100.00;98627.03;5570497;32;34734;-67
2022/03/31 08:14:21;;;;;;;17.92;9.13;;;;;;;9.88;100.00;98636.16;5569526;32;34026;-68
2022/03/31 08:17:23;;;;;;;18.50;10.73;;;;;;;9.69;100.00;98629.87;5570033;32;34009;-67
2022/03/31 08:20:26;;;;;;;22.30;10.70;;;;;;;9.53;100.00;98628.47;5569955;32;34249;-68
2022/03/31 08:23:30;;;;;;;16.75;9.57;;;;;;;9.57;100.00;98619.09;5570047;32;35439;-68
2022/03/31 08:26:33;;;;;;;21.62;11.10;;;;;;;9.79;100.00;98610.94;5570158;32;34577;-67
2022/03/31 08:29:36;;;;;;;21.48;10.93;;;;;;;9.28;100.00;98597.50;5570116;32;33970;-68
2022/03/31 08:32:42;;;;;;;23.70;10.65;;;;;;;9.20;100.00;98600.38;5570206;32;33938;-67
2022/03/31 08:35:45;;;;;;;24.50;11.30;;;;;;;9.38;100.00;98593.44;5569788;32;35290;-68
2022/03/31 08:38:48;;;;;;;18.87;10.85;;;;;;;9.50;100.00;98591.00;5556176;32;34697;-68
2022/03/31 08:41:51;;;;;;;19.98;11.60;;;;;;;9.29;100.00;98591.22;5556023;32;32558;-68
2022/03/31 08:44:57;;;;;;;20.60;10.65;;;;;;;9.57;100.00;98597.09;5569910;32;34007;-68
2022/03/31 08:48:01;;;;;;;18.23;10.70;;;;;;;9.58;100.00;98588.94;5569711;32;34047;-66
2022/03/31 08:51:06;;;;;;;27.25;11.12;;;;;;;9.54;100.00;98586.91;5569405;32;35402;-67
2022/03/31 08:54:09;;;;;;;20.80;10.68;;;;;;;9.55;100.00;98570.84;5569576;32;34082;-68
2022/03/31 08:57:12;;;;;;;23.23;10.77;;;;;;;9.58;100.00;98573.06;5569524;32;33974;-68
2022/03/31 09:00:35;;;;;;;26.70;11.25;;;;;;;9.50;100.00;98573.28;5558515;32;33927;-67
2022/03/31 09:03:38;;;;;;;24.85;12.32;;;;;;;9.43;100.00;98563.72;5569447;32;33926;-67
2022/03/31 09:06:41;;;;;;;25.62;12.15;;;;;;;9.64;100.00;98575.91;5569401;32;34744;-67
2022/03/31 09:09:50;;;;;;;17.50;10.88;;;;;;;9.67;100.00;98564.91;5569201;32;35288;-67
2022/03/31 09:12:53;;;;;;;24.73;10.88;;;;;;;9.57;100.00;98552.91;5569297;32;35267;-67
2022/03/31 09:16:11;;;;;;;19.35;9.48;;;;;;;9.53;100.00;98545.59;5569095;32;34647;-67
2022/03/31 09:19:15;;;;;;;23.17;9.75;;;;;;;9.40;100.00;98543.75;5569238;32;34035;-67
2022/03/31 09:22:19;;;;;;;18.55;9.15;;;;;;;9.64;100.00;98552.91;5568923;32;34234;-67
2022/03/31 09:25:26;;;;;;;20.27;9.60;;;;;;;9.53;100.00;98541.12;5569655;32;33885;-67
2022/03/31 09:28:30;;;;;;;22.52;8.93;;;;;;;9.66;100.00;98542.91;5571302;32;34608;-68
2022/03/31 09:31:33;;;;;;;18.65;8.35;;;;;;;9.58;100.00;98536.00;5558121;32;34282;-68
2022/03/31 09:34:39;;;;;;;17.35;9.70;;;;;;;9.48;100.00;98529.53;5571399;32;34341;-68
2022/03/31 09:37:42;;;;;;;28.77;9.25;;;;;;;9.30;100.00;98530.13;5571396;32;34345;-68
2022/03/31 09:40:45;;;;;;;18.70;9.18;;;;;;;9.39;100.00;98530.75;5571833;32;34263;-67
2022/03/31 09:43:51;;;;;;;17.77;9.55;;;;;;;9.53;100.00;98527.06;5572832;32;34412;-68
2022/03/31 09:46:53;;;;;;;18.27;9.63;;;;;;;9.65;100.00;98528.06;5571849;32;33895;-67
2022/03/31 09:49:57;;;;;;;19.87;10.45;;;;;;;9.62;100.00;98535.59;5572169;32;34630;-67
2022/03/31 09:53:06;;;;;;;18.90;9.80;;;;;;;9.58;100.00;98522.75;5559518;32;34364;-70
2022/03/31 09:56:11;;;;;;;20.65;10.45;;;;;;;9.52;100.00;98512.19;5557920;32;33862;-69
2022/03/31 09:59:15;;;;;;;21.15;11.10;;;;;;;9.49;100.00;98517.88;5571223;32;33913;-69
2022/03/31 10:02:28;;;;;;;20.55;10.10;;;;;;;9.49;100.00;98504.66;5571591;32;34041;-70
2022/03/31 10:05:32;;;;;;;22.98;11.50;;;;;;;9.46;100.00;98508.53;5545065;32;33939;-69
2022/03/31 10:08:44;;;;;;;21.92;11.40;;;;;;;9.52;100.00;98501.63;5571145;32;34737;-70
2022/03/31 10:12:21;;;;;;;24.15;11.82;;;;;;;9.67;100.00;98488.97;5557916;32;34312;-70
2022/03/31 10:15:34;;;;;;;25.83;11.77;;;;;;;9.84;100.00;98482.16;5565170;32;33906;-68
2022/03/31 10:18:40;;;;;;;29.20;12.18;;;;;;;10.05;100.00;98473.12;5571262;32;33890;-70
2022/03/31 10:21:43;;;;;;;24.33;12.05;;;;;;;10.04;100.00;98474.16;5570971;32;33994;-70
2022/03/31 10:24:53;;;;;;;19.45;10.68;;;;;;;9.94;100.00;98476.44;5571084;32;33920;-69
2022/03/31 10:28:07;;;;;;;20.65;10.85;;;;;;;9.86;100.00;98482.78;5571370;32;34679;-69
2022/03/31 10:31:12;;;;;;;21.33;9.75;;;;;;;9.89;100.00;98492.94;5570808;32;35434;-70
2022/03/31 10:34:15;;;;;;;20.48;10.15;;;;;;;9.69;100.00;98489.53;5571025;32;34087;-69
2022/03/31 10:37:36;;;;;;;20.02;10.77;;;;;;;9.64;100.00;98486.69;5570567;32;34688;-70
2022/03/31 10:40:44;;;;;;;21.55;10.75;;;;;;;9.60;100.00;98481.03;5570925;32;34043;-70
2022/03/31 10:43:52;;;;;;;23.45;11.00;;;;;;;9.68;100.00;98474.69;5570631;32;34461;-70
2022/03/31 10:47:05;;;;;;;23.38;10.57;;;;;;;9.88;100.00;98471.97;5570510;32;34222;-70
2022/03/31 10:50:22;;;;;;;26.58;11.35;;;;;;;9.78;100.00;98466.31;5569984;32;34075;-68
2022/03/31 10:53:30;;;;;;;17.40;11.07;;;;;;;9.67;100.00;98470.41;5570278;32;34292;-70
2022/03/31 10:56:33;;;;;;;24.60;10.88;;;;;;;9.74;100.00;98457.16;5569742;32;34122;-69
2022/03/31 10:59:37;;;;;;;16.45;11.77;;;;;;;9.65;100.00;98448.63;5570164;32;34069;-70
2022/03/31 11:02:43;;;;;;;21.95;11.35;;;;;;;9.93;100.00;98441.19;5569709;32;34650;-70
2022/03/31 11:06:11;;;;;;;20.15;11.57;;;;;;;9.76;100.00;98445.34;5569732;32;34630;-69
2022/03/31 11:09:29;;;;;;;22.50;10.80;;;;;;;9.97;100.00;98436.28;5570011;32;34394;-70
2022/03/31 11:12:33;;;;;;;27.05;10.45;;;;;;;10.12;100.00;98436.00;5569889;32;34055;-70
2022/03/31 11:15:36;;;;;;;19.37;10.48;;;;;;;9.79;100.00;98431.66;5569281;32;34447;-69
2022/03/31 11:18:39;;;;;;;26.02;10.15;;;;;;;9.82;100.00;98431.25;5556222;32;34385;-70
2022/03/31 11:21:43;;;;;;;20.98;11.68;;;;;;;9.88;100.00;98432.22;5568961;32;34705;-70
2022/03/31 11:24:46;;;;;;;16.12;10.75;;;;;;;9.95;100.00;98427.72;5569872;32;34116;-71
2022/03/31 11:27:50;;;;;;;18.10;11.10;;;;;;;9.96;100.00;98430.19;5558291;32;34182;-68
2022/03/31 11:30:54;;;;;;;18.45;11.15;;;;;;;9.95;100.00;98425.91;5569497;31;34406;-69
2022/03/31 11:33:58;;;;;;;24.15;11.20;;;;;;;9.84;100.00;98426.56;5556110;32;34550;-69
2022/03/31 11:37:00;;;;;;;16.83;10.63;;;;;;;9.91;100.00;98414.09;5569614;32;34132;-69
2022/03/31 11:40:04;;;;;;;19.15;9.38;;;;;;;9.72;100.00;98419.50;5569495;32;34719;-69
2022/03/31 11:43:09;;;;;;;27.77;11.27;;;;;;;9.66;100.00;98410.53;5569451;32;34244;-69
2022/03/31 11:46:13;;;;;;;19.65;10.90;;;;;;;9.62;100.00;98404.03;5569272;32;34714;-69
2022/03/31 11:49:17;;;;;;;20.95;11.57;;;;;;;9.63;100.00;98407.50;5568466;32;33918;-68
2022/03/31 11:52:28;;;;;;;19.85;11.30;;;;;;;9.82;100.00;98401.31;5569350;32;34101;-68
2022/03/31 11:55:31;;;;;;;19.25;10.95;;;;;;;9.94;100.00;98402.25;5569643;32;34002;-68
2022/03/31 11:58:42;;;;;;;21.02;9.95;;;;;;;9.90;100.00;98404.53;5569114;32;34977;-68
2022/03/31 12:01:46;;;;;;;18.25;9.85;;;;;;;9.98;100.00;98406.09;5568685;32;33981;-69
2022/03/31 12:04:49;;;;;;;21.37;10.25;;;;;;;9.87;100.00;98391.72;5569322;32;33877;-68
2022/03/31 12:07:53;;;;;;;18.60;10.00;;;;;;;9.76;100.00;98387.06;5569418;32;34052;-68
2022/03/31 12:10:57;;;;;;;21.00;10.00;;;;;;;9.77;100.00;98379.94;5569369;32;34028;-69
2022/03/31 12:14:02;;;;;;;19.80;10.05;;;;;;;9.67;100.00;98367.16;5569428;32;34560;-68
2022/03/31 12:17:17;;;;;;;21.42;10.88;;;;;;;9.74;100.00;98364.47;5569409;32;33829;-68
2022/03/31 12:20:20;;;;;;;20.02;10.27;;;;;;;9.80;100.00;98355.69;5569373;32;35435;-69
2022/03/31 12:23:26;;;;;;;20.27;10.30;;;;;;;9.81;100.00;98323.69;5555744;32;34015;-69
2022/03/31 12:26:29;;;;;;;17.87;10.77;;;;;;;9.70;100.00;98320.91;5569147;32;34307;-68
2022/03/31 12:29:33;;;;;;;21.90;11.18;;;;;;;9.65;100.00;98323.38;5568633;32;34799;-68
2022/03/31 12:32:48;;;;;;;18.10;10.68;;;;;;;9.62;100.00;98327.28;5569357;32;34565;-69
2022/03/31 12:35:52;;;;;;;17.80;11.27;;;;;;;9.62;100.00;98332.56;5568829;32;34007;-69
2022/03/31 12:38:56;;;;;;;19.95;10.77;;;;;;;9.66;100.00;98327.66;5555074;32;34563;-69
2022/03/31 12:41:59;;;;;;;18.77;11.18;;;;;;;9.68;100.00;98328.28;5568967;32;34415;-69
2022/03/31 12:45:15;;;;;;;21.35;11.27;;;;;;;9.60;100.00;98332.78;5568961;32;34259;-69
2022/03/31 12:48:19;;;;;;;21.73;11.65;;;;;;;9.69;100.00;98340.47;5568581;32;33969;-69
2022/03/31 12:51:24;;;;;;;16.98;10.82;;;;;;;9.65;100.00;98337.44;5555026;32;34191;-70
2022/03/31 12:54:32;;;;;;;21.10;10.57;;;;;;;9.65;100.00;98336.62;5568982;32;34123;-69
2022/03/31 12:57:35;;;;;;;24.60;12.43;;;;;;;9.59;100.00;98335.62;5568393;32;34050;-70
2022/03/31 13:00:38;;;;;;;19.92;11.52;;;;;;;9.56;100.00;98326.28;5567965;32;35036;-69
2022/03/31 13:03:46;;;;;;;18.37;11.32;;;;;;;9.55;100.00;98323.84;5568356;32;34763;-69
2022/03/31 13:06:50;;;;;;;24.30;10.88;;;;;;;9.55;100.00;98319.34;5568341;32;34750;-70
2022/03/31 13:09:56;;;;;;;21.80;10.57;;;;;;;9.52;100.00;98319.78;5568452;32;34179;-70
2022/03/31 13:12:59;;;;;;;18.85;10.60;;;;;;;9.52;100.00;98325.06;5554592;32;34754;-71
2022/03/31 13:16:02;;;;;;;17.45;10.93;;;;;;;9.45;100.00;98332.22;5554797;32;34790;-70
2022/03/31 13:19:05;;;;;;;18.08;10.35;;;;;;;9.57;100.00;98329.75;5568321;32;33977;-70
2022/03/31 13:22:12;;;;;;;20.52;10.55;;;;;;;9.62;100.00;98324.63;5568253;32;34242;-70
2022/03/31 13:25:16;;;;;;;24.83;10.85;;;;;;;9.62;100.00;98321.16;5568282;32;34040;-70
2022/03/31 13:28:19;;;;;;;23.95;11.02;;;;;;;9.49;100.00;98322.03;5567895;32;33998;-71
2022/03/31 13:31:24;;;;;;;18.42;11.43;;;;;;;9.37;100.00;98313.12;5567976;32;34780;-71
2022/03/31 13:34:30;;;;;;;19.30;10.77;;;;;;;9.41;100.00;98314.34;5568349;32;33894;-70
2022/03/31 13:37:36;;;;;;;21.60;11.07;;;;;;;9.42;100.00;98311.47;5567878;32;35319;-71
2022/03/31 13:40:39;;;;;;;22.23;12.30;;;;;;;9.32;100.00;98302.37;5568158;32;34020;-70
2022/03/31 13:43:42;;;;;;;20.58;11.98;;;;;;;9.32;100.00;98294.44;5568135;32;34085;-70
2022/03/31 13:46:45;;;;;;;21.83;11.73;;;;;;;9.39;100.00;98298.66;5567593;32;33917;-70
2022/03/31 13:49:51;;;;;;;19.58;13.00;;;;;;;9.32;100.00;98289.94;5567531;32;35274;-70
2022/03/31 13:56:16;;;;;;;25.70;13.60;;;;;;;9.24;100.00;98276.97;5567620;32;34087;-70
2022/03/31 14:02:42;;;;;;;20.27;12.75;;;;;;;9.28;100.00;98269.41;5567774;32;34943;-70
2022/03/31 14:05:46;;;;;;;25.10;12.30;;;;;;;9.40;100.00;98263.22;5567382;32;33984;-69
2022/03/31 14:08:50;;;;;;;30.95;13.05;;;;;;;9.46;100.00;98259.75;5566779;32;34144;-70
2022/03/31 14:11:55;;;;;;;27.55;13.40;;;;;;;9.40;100.00;98252.66;5567747;32;34657;-70
2022/03/31 14:14:58;;;;;;;22.60;12.95;;;;;;;9.36;100.00;98240.87;5570244;32;34695;-70
2022/03/31 14:18:04;;;;;;;30.85;13.43;;;;;;;9.33;100.00;98240.50;5569762;32;33864;-70
2022/03/31 14:21:09;;;;;;;30.73;13.25;;;;;;;9.35;100.00;98241.88;5569808;32;34839;-69
2022/03/31 14:24:14;;;;;;;25.60;13.30;;;;;;;9.43;100.00;98230.25;5569945;32;34163;-70